sensor_id;sensor_type;location;lat;lon;timestamp;temperature;humidity
35962;DHT22;22044;48.298;10.008;2023-04-07T00:02:56;6.20;99.90
35962;DHT22;22044;48.298;10.008;2023-04-07T00:05:42;6.10;99.90
35962;DHT22;22044;48.298;10.008;2023-04-07T00:08:27;6.20;99.90
35962;DHT22;22044;48.298;10.008;2023-04-07T00:11:14;6.20;99.90
35962;DHT22;22044;48.298;10.008;2023-04-07T00:14:01;6.20;99.90
35962;DHT22;22044;48.298;10.008;2023-04-07T00:16:46;6.20;99.90
35962;DHT22;22044;48.298;10.008;2023-04-07T00:19:32;6.20;99.90
35962;DHT22;22044;48.298;10.008;2023-04-07T00:22:18;6.20;99.90
35962;DHT22;22044;48.298;10.008;2023-04-07T00:25:04;6.20;99.90
35962;DHT22;22044;48.298;10.008;2023-04-07T00:27:50;5.90;99.90
35962;DHT22;22044;48.298;10.008;2023-04-07T00:30:37;5.70;99.90
35962;DHT22;22044;48.298;10.008;2023-04-07T00:33:23;5.50;99.90
35962;DHT22;22044;48.298;10.008;2023-04-07T00:36:09;5.50;99.90
35962;DHT22;22044;48.298;10.008;2023-04-07T00:38:55;5.50;99.90
35962;DHT22;22044;48.298;10.008;2023-04-07T00:41:41;5.50;99.90
35962;DHT22;22044;48.298;10.008;2023-04-07T00:44:26;5.60;99.90
35962;DHT22;22044;48.298;10.008;2023-04-07T00:47:14;5.70;99.90
35962;DHT22;22044;48.298;10.008;2023-04-07T00:50:02;5.50;99.90
35962;DHT22;22044;48.298;10.008;2023-04-07T00:52:48;5.30;99.90
35962;DHT22;22044;48.298;10.008;2023-04-07T00:55:34;5.10;99.90
35962;DHT22;22044;48.298;10.008;2023-04-07T00:58:19;5.10;99.90
35962;DHT22;22044;48.298;10.008;2023-04-07T01:01:08;5.00;99.90
35962;DHT22;22044;48.298;10.008;2023-04-07T01:04:00;4.80;99.90
35962;DHT22;22044;48.298;10.008;2023-04-07T01:06:50;4.80;99.90
35962;DHT22;22044;48.298;10.008;2023-04-07T01:09:44;4.80;99.90
35962;DHT22;22044;48.298;10.008;2023-04-07T01:12:35;4.80;99.90
35962;DHT22;22044;48.298;10.008;2023-04-07T01:15:26;4.80;99.90
35962;DHT22;22044;48.298;10.008;2023-04-07T01:18:20;4.80;99.90
35962;DHT22;22044;48.298;10.008;2023-04-07T01:21:13;4.70;99.90
35962;DHT22;22044;48.298;10.008;2023-04-07T01:24:26;4.70;99.90
35962;DHT22;22044;48.298;10.008;2023-04-07T01:27:24;4.60;99.90
35962;DHT22;22044;48.298;10.008;2023-04-07T01:30:15;4.60;99.90
35962;DHT22;22044;48.298;10.008;2023-04-07T01:33:01;4.60;99.90
35962;DHT22;22044;48.298;10.008;2023-04-07T01:35:49;4.60;99.90
35962;DHT22;22044;48.298;10.008;2023-04-07T01:38:35;4.60;99.90
35962;DHT22;22044;48.298;10.008;2023-04-07T01:41:22;4.50;99.90
35962;DHT22;22044;48.298;10.008;2023-04-07T01:44:08;4.40;99.90
35962;DHT22;22044;48.298;10.008;2023-04-07T01:46:56;4.50;99.90
35962;DHT22;22044;48.298;10.008;2023-04-07T01:49:43;4.50;99.90
35962;DHT22;22044;48.298;10.008;2023-04-07T01:52:30;4.40;99.90
35962;DHT22;22044;48.298;10.008;2023-04-07T01:55:15;4.30;99.90
35962;DHT22;22044;48.298;10.008;2023-04-07T01:58:11;4.30;99.90
35962;DHT22;22044;48.298;10.008;2023-04-07T02:00:59;4.20;99.90
35962;DHT22;22044;48.298;10.008;2023-04-07T02:03:51;4.30;99.90
35962;DHT22;22044;48.298;10.008;2023-04-07T02:06:42;4.30;99.90
35962;DHT22;22044;48.298;10.008;2023-04-07T02:09:31;4.30;99.90
35962;DHT22;22044;48.298;10.008;2023-04-07T02:12:17;4.30;99.90
35962;DHT22;22044;48.298;10.008;2023-04-07T02:15:18;4.30;99.90
35962;DHT22;22044;48.298;10.008;2023-04-07T02:18:05;4.30;99.90
35962;DHT22;22044;48.298;10.008;2023-04-07T02:20:57;4.30;99.90
35962;DHT22;22044;48.298;10.008;2023-04-07T02:23:43;4.40;99.90
35962;DHT22;22044;48.298;10.008;2023-04-07T02:26:33;4.50;99.90
35962;DHT22;22044;48.298;10.008;2023-04-07T02:29:20;4.50;99.90
35962;DHT22;22044;48.298;10.008;2023-04-07T02:32:06;4.60;99.90
35962;DHT22;22044;48.298;10.008;2023-04-07T02:34:51;4.60;99.90
35962;DHT22;22044;48.298;10.008;2023-04-07T02:37:38;4.60;99.90
35962;DHT22;22044;48.298;10.008;2023-04-07T02:40:24;4.60;99.90
35962;DHT22;22044;48.298;10.008;2023-04-07T02:43:11;4.60;99.90
35962;DHT22;22044;48.298;10.008;2023-04-07T02:45:56;4.60;99.90
35962;DHT22;22044;48.298;10.008;2023-04-07T02:48:42;4.70;99.90
35962;DHT22;22044;48.298;10.008;2023-04-07T02:51:27;4.60;99.90
35962;DHT22;22044;48.298;10.008;2023-04-07T02:54:14;4.60;99.90
35962;DHT22;22044;48.298;10.008;2023-04-07T02:57:01;4.60;99.90
35962;DHT22;22044;48.298;10.008;2023-04-07T02:59:47;4.60;99.90
35962;DHT22;22044;48.298;10.008;2023-04-07T03:02:33;4.70;99.90
35962;DHT22;22044;48.298;10.008;2023-04-07T03:05:19;4.90;99.90
35962;DHT22;22044;48.298;10.008;2023-04-07T03:08:05;4.90;99.90
35962;DHT22;22044;48.298;10.008;2023-04-07T03:10:52;5.00;99.90
35962;DHT22;22044;48.298;10.008;2023-04-07T03:13:43;4.90;99.90
35962;DHT22;22044;48.298;10.008;2023-04-07T03:16:28;4.80;99.90
35962;DHT22;22044;48.298;10.008;2023-04-07T03:19:22;4.70;99.90
35962;DHT22;22044;48.298;10.008;2023-04-07T03:22:10;4.80;99.90
35962;DHT22;22044;48.298;10.008;2023-04-07T03:25:03;4.70;99.90
35962;DHT22;22044;48.298;10.008;2023-04-07T03:27:50;4.70;99.90
35962;DHT22;22044;48.298;10.008;2023-04-07T03:30:36;4.60;99.90
35962;DHT22;22044;48.298;10.008;2023-04-07T03:33:22;4.60;99.90
35962;DHT22;22044;48.298;10.008;2023-04-07T03:36:08;4.60;99.90
35962;DHT22;22044;48.298;10.008;2023-04-07T03:38:54;4.60;99.90
35962;DHT22;22044;48.298;10.008;2023-04-07T03:41:39;4.60;99.90
35962;DHT22;22044;48.298;10.008;2023-04-07T03:44:26;4.70;99.90
35962;DHT22;22044;48.298;10.008;2023-04-07T03:47:12;4.70;99.90
35962;DHT22;22044;48.298;10.008;2023-04-07T03:49:58;4.70;99.90
35962;DHT22;22044;48.298;10.008;2023-04-07T03:52:45;4.60;99.90
35962;DHT22;22044;48.298;10.008;2023-04-07T03:55:40;4.60;99.90
35962;DHT22;22044;48.298;10.008;2023-04-07T03:58:33;4.50;99.90
35962;DHT22;22044;48.298;10.008;2023-04-07T04:01:20;4.70;99.90
35962;DHT22;22044;48.298;10.008;2023-04-07T04:04:08;4.80;99.90
35962;DHT22;22044;48.298;10.008;2023-04-07T04:06:54;4.80;99.90
35962;DHT22;22044;48.298;10.008;2023-04-07T04:10:09;4.70;99.90
35962;DHT22;22044;48.298;10.008;2023-04-07T04:13:00;4.70;99.90
35962;DHT22;22044;48.298;10.008;2023-04-07T04:15:47;4.70;99.90
35962;DHT22;22044;48.298;10.008;2023-04-07T04:18:36;4.60;99.90
35962;DHT22;22044;48.298;10.008;2023-04-07T04:21:23;4.60;99.90
35962;DHT22;22044;48.298;10.008;2023-04-07T04:24:10;4.60;99.90
35962;DHT22;22044;48.298;10.008;2023-04-07T04:26:57;4.60;99.90
35962;DHT22;22044;48.298;10.008;2023-04-07T04:29:42;4.60;99.90
35962;DHT22;22044;48.298;10.008;2023-04-07T04:32:31;4.60;99.90
35962;DHT22;22044;48.298;10.008;2023-04-07T04:35:18;4.60;99.90
35962;DHT22;22044;48.298;10.008;2023-04-07T04:38:24;4.70;99.90
35962;DHT22;22044;48.298;10.008;2023-04-07T04:41:21;4.80;99.90
35962;DHT22;22044;48.298;10.008;2023-04-07T04:44:08;4.70;99.90
35962;DHT22;22044;48.298;10.008;2023-04-07T04:46:56;4.70;99.90
35962;DHT22;22044;48.298;10.008;2023-04-07T04:49:42;4.70;99.90
35962;DHT22;22044;48.298;10.008;2023-04-07T04:52:29;4.80;99.90
35962;DHT22;22044;48.298;10.008;2023-04-07T04:55:17;4.90;99.90
35962;DHT22;22044;48.298;10.008;2023-04-07T04:58:03;4.90;99.90
35962;DHT22;22044;48.298;10.008;2023-04-07T05:01:01;5.00;99.90
35962;DHT22;22044;48.298;10.008;2023-04-07T05:03:54;5.00;99.90
35962;DHT22;22044;48.298;10.008;2023-04-07T05:06:44;5.10;99.90
35962;DHT22;22044;48.298;10.008;2023-04-07T05:09:34;5.10;99.90
35962;DHT22;22044;48.298;10.008;2023-04-07T05:12:20;5.20;99.90
35962;DHT22;22044;48.298;10.008;2023-04-07T05:15:12;5.20;99.90
35962;DHT22;22044;48.298;10.008;2023-04-07T05:18:01;5.30;99.90
35962;DHT22;22044;48.298;10.008;2023-04-07T05:20:48;5.30;99.90
35962;DHT22;22044;48.298;10.008;2023-04-07T05:23:35;5.30;99.90
35962;DHT22;22044;48.298;10.008;2023-04-07T05:26:23;5.20;99.90
35962;DHT22;22044;48.298;10.008;2023-04-07T05:29:09;5.30;99.90
35962;DHT22;22044;48.298;10.008;2023-04-07T05:31:54;5.30;99.90
35962;DHT22;22044;48.298;10.008;2023-04-07T05:34:41;5.30;99.90
35962;DHT22;22044;48.298;10.008;2023-04-07T05:37:28;5.20;99.90
35962;DHT22;22044;48.298;10.008;2023-04-07T05:40:17;5.20;99.90
35962;DHT22;22044;48.298;10.008;2023-04-07T05:43:05;5.20;99.90
35962;DHT22;22044;48.298;10.008;2023-04-07T05:45:52;5.30;99.90
35962;DHT22;22044;48.298;10.008;2023-04-07T05:48:38;5.30;99.90
35962;DHT22;22044;48.298;10.008;2023-04-07T05:51:25;5.30;99.90
35962;DHT22;22044;48.298;10.008;2023-04-07T05:54:13;5.30;99.90
35962;DHT22;22044;48.298;10.008;2023-04-07T05:56:59;5.10;99.90
35962;DHT22;22044;48.298;10.008;2023-04-07T05:59:48;4.70;99.90
35962;DHT22;22044;48.298;10.008;2023-04-07T06:02:34;4.50;99.90
35962;DHT22;22044;48.298;10.008;2023-04-07T06:05:20;4.50;99.90
35962;DHT22;22044;48.298;10.008;2023-04-07T06:08:09;4.50;99.90
35962;DHT22;22044;48.298;10.008;2023-04-07T06:10:55;4.50;99.90
35962;DHT22;22044;48.298;10.008;2023-04-07T06:13:40;4.60;99.90
35962;DHT22;22044;48.298;10.008;2023-04-07T06:16:28;4.70;99.90
35962;DHT22;22044;48.298;10.008;2023-04-07T06:19:14;4.70;99.90
35962;DHT22;22044;48.298;10.008;2023-04-07T06:21:59;4.80;99.90
35962;DHT22;22044;48.298;10.008;2023-04-07T06:24:45;4.90;99.90
35962;DHT22;22044;48.298;10.008;2023-04-07T06:27:30;5.00;99.90
35962;DHT22;22044;48.298;10.008;2023-04-07T06:30:17;5.10;99.90
35962;DHT22;22044;48.298;10.008;2023-04-07T06:33:04;5.20;99.90
35962;DHT22;22044;48.298;10.008;2023-04-07T06:35:50;5.20;99.90
35962;DHT22;22044;48.298;10.008;2023-04-07T06:38:36;5.20;99.90
35962;DHT22;22044;48.298;10.008;2023-04-07T06:41:21;5.00;99.90
35962;DHT22;22044;48.298;10.008;2023-04-07T06:44:07;4.90;99.90
35962;DHT22;22044;48.298;10.008;2023-04-07T06:46:53;4.80;99.90
35962;DHT22;22044;48.298;10.008;2023-04-07T06:49:40;4.80;99.90
35962;DHT22;22044;48.298;10.008;2023-04-07T06:52:25;4.80;99.90
35962;DHT22;22044;48.298;10.008;2023-04-07T06:55:11;4.80;99.90
35962;DHT22;22044;48.298;10.008;2023-04-07T06:57:56;4.90;99.90
35962;DHT22;22044;48.298;10.008;2023-04-07T07:00:42;5.10;99.90
35962;DHT22;22044;48.298;10.008;2023-04-07T07:03:28;5.20;99.90
35962;DHT22;22044;48.298;10.008;2023-04-07T07:06:15;5.30;99.90
35962;DHT22;22044;48.298;10.008;2023-04-07T07:09:02;5.40;99.90
35962;DHT22;22044;48.298;10.008;2023-04-07T07:11:47;5.50;99.90
35962;DHT22;22044;48.298;10.008;2023-04-07T07:14:33;5.70;99.90
35962;DHT22;22044;48.298;10.008;2023-04-07T07:17:19;5.80;99.90
35962;DHT22;22044;48.298;10.008;2023-04-07T07:20:05;5.90;99.90
35962;DHT22;22044;48.298;10.008;2023-04-07T07:22:52;6.10;99.90
35962;DHT22;22044;48.298;10.008;2023-04-07T07:25:39;6.10;99.90
35962;DHT22;22044;48.298;10.008;2023-04-07T07:28:24;6.20;99.90
35962;DHT22;22044;48.298;10.008;2023-04-07T07:31:10;6.30;99.90
35962;DHT22;22044;48.298;10.008;2023-04-07T07:33:58;6.40;99.90
35962;DHT22;22044;48.298;10.008;2023-04-07T07:36:43;6.50;99.90
35962;DHT22;22044;48.298;10.008;2023-04-07T07:39:30;6.50;99.90
35962;DHT22;22044;48.298;10.008;2023-04-07T07:42:16;6.60;99.90
35962;DHT22;22044;48.298;10.008;2023-04-07T07:45:02;6.70;99.90
35962;DHT22;22044;48.298;10.008;2023-04-07T07:47:48;6.70;99.90
35962;DHT22;22044;48.298;10.008;2023-04-07T07:50:33;6.70;99.90
35962;DHT22;22044;48.298;10.008;2023-04-07T07:53:19;6.70;99.90
35962;DHT22;22044;48.298;10.008;2023-04-07T07:56:06;6.70;99.90
35962;DHT22;22044;48.298;10.008;2023-04-07T07:58:52;6.80;99.90
35962;DHT22;22044;48.298;10.008;2023-04-07T08:01:37;6.80;99.90
35962;DHT22;22044;48.298;10.008;2023-04-07T08:04:23;6.80;99.90
35962;DHT22;22044;48.298;10.008;2023-04-07T08:07:09;6.90;99.90
35962;DHT22;22044;48.298;10.008;2023-04-07T08:09:55;6.90;99.90
35962;DHT22;22044;48.298;10.008;2023-04-07T08:12:42;7.00;99.90
35962;DHT22;22044;48.298;10.008;2023-04-07T08:15:28;7.10;99.90
35962;DHT22;22044;48.298;10.008;2023-04-07T08:18:13;7.00;99.90
35962;DHT22;22044;48.298;10.008;2023-04-07T08:20:59;7.10;99.90
35962;DHT22;22044;48.298;10.008;2023-04-07T08:23:44;7.20;99.90
35962;DHT22;22044;48.298;10.008;2023-04-07T08:26:31;7.40;99.90
35962;DHT22;22044;48.298;10.008;2023-04-07T08:29:17;7.50;99.90
35962;DHT22;22044;48.298;10.008;2023-04-07T08:32:03;7.70;99.90
35962;DHT22;22044;48.298;10.008;2023-04-07T08:34:49;7.90;99.90
35962;DHT22;22044;48.298;10.008;2023-04-07T08:37:36;8.10;99.90
35962;DHT22;22044;48.298;10.008;2023-04-07T08:40:21;8.20;99.90
35962;DHT22;22044;48.298;10.008;2023-04-07T08:43:08;8.00;99.90
35962;DHT22;22044;48.298;10.008;2023-04-07T08:45:56;8.00;99.90
35962;DHT22;22044;48.298;10.008;2023-04-07T08:48:43;8.20;99.90
35962;DHT22;22044;48.298;10.008;2023-04-07T08:51:30;8.40;99.90
35962;DHT22;22044;48.298;10.008;2023-04-07T08:54:16;8.50;99.90
35962;DHT22;22044;48.298;10.008;2023-04-07T08:57:05;8.60;99.90
35962;DHT22;22044;48.298;10.008;2023-04-07T08:59:52;8.70;99.90
35962;DHT22;22044;48.298;10.008;2023-04-07T09:02:41;8.80;99.90
35962;DHT22;22044;48.298;10.008;2023-04-07T09:05:29;8.90;99.90
35962;DHT22;22044;48.298;10.008;2023-04-07T09:08:15;9.00;99.90
35962;DHT22;22044;48.298;10.008;2023-04-07T09:11:01;9.10;99.90
35962;DHT22;22044;48.298;10.008;2023-04-07T09:13:47;9.40;99.90
35962;DHT22;22044;48.298;10.008;2023-04-07T09:16:33;10.00;99.90
35962;DHT22;22044;48.298;10.008;2023-04-07T09:19:20;10.30;99.90
35962;DHT22;22044;48.298;10.008;2023-04-07T09:22:06;10.50;99.90
35962;DHT22;22044;48.298;10.008;2023-04-07T09:25:08;10.50;99.90
35962;DHT22;22044;48.298;10.008;2023-04-07T09:27:55;10.70;99.90
35962;DHT22;22044;48.298;10.008;2023-04-07T09:30:51;10.80;99.90
35962;DHT22;22044;48.298;10.008;2023-04-07T09:33:38;11.00;99.90
35962;DHT22;22044;48.298;10.008;2023-04-07T09:36:28;11.20;99.90
35962;DHT22;22044;48.298;10.008;2023-04-07T09:39:25;11.00;99.90
35962;DHT22;22044;48.298;10.008;2023-04-07T09:42:11;10.60;99.90
35962;DHT22;22044;48.298;10.008;2023-04-07T09:44:57;10.80;99.90
35962;DHT22;22044;48.298;10.008;2023-04-07T09:47:42;11.30;99.90
35962;DHT22;22044;48.298;10.008;2023-04-07T09:50:32;11.60;99.90
35962;DHT22;22044;48.298;10.008;2023-04-07T09:53:19;11.90;99.90
35962;DHT22;22044;48.298;10.008;2023-04-07T09:56:07;12.10;99.90
35962;DHT22;22044;48.298;10.008;2023-04-07T09:58:53;12.00;99.90
35962;DHT22;22044;48.298;10.008;2023-04-07T10:01:39;11.80;99.90
35962;DHT22;22044;48.298;10.008;2023-04-07T10:04:25;11.50;99.90
35962;DHT22;22044;48.298;10.008;2023-04-07T10:07:12;11.30;99.90
35962;DHT22;22044;48.298;10.008;2023-04-07T10:10:01;11.00;99.90
35962;DHT22;22044;48.298;10.008;2023-04-07T10:12:49;11.00;99.90
35962;DHT22;22044;48.298;10.008;2023-04-07T10:15:37;10.90;99.90
35962;DHT22;22044;48.298;10.008;2023-04-07T10:18:27;10.80;99.90
35962;DHT22;22044;48.298;10.008;2023-04-07T10:21:15;10.70;99.90
35962;DHT22;22044;48.298;10.008;2023-04-07T10:24:08;10.70;99.90
35962;DHT22;22044;48.298;10.008;2023-04-07T10:27:08;10.60;99.90
35962;DHT22;22044;48.298;10.008;2023-04-07T10:29:55;10.50;99.90
35962;DHT22;22044;48.298;10.008;2023-04-07T10:32:45;10.40;99.90
35962;DHT22;22044;48.298;10.008;2023-04-07T10:36:03;10.50;99.90
35962;DHT22;22044;48.298;10.008;2023-04-07T10:39:21;10.40;99.90
35962;DHT22;22044;48.298;10.008;2023-04-07T10:42:45;10.50;99.90
35962;DHT22;22044;48.298;10.008;2023-04-07T10:45:53;10.50;99.90
35962;DHT22;22044;48.298;10.008;2023-04-07T10:48:42;10.60;99.90
35962;DHT22;22044;48.298;10.008;2023-04-07T10:52:20;10.60;99.90
35962;DHT22;22044;48.298;10.008;2023-04-07T10:55:29;10.60;99.90
35962;DHT22;22044;48.298;10.008;2023-04-07T10:58:23;10.60;99.90
35962;DHT22;22044;48.298;10.008;2023-04-07T11:01:17;10.70;99.90
35962;DHT22;22044;48.298;10.008;2023-04-07T11:04:06;10.70;99.90
35962;DHT22;22044;48.298;10.008;2023-04-07T11:06:52;10.80;99.90
35962;DHT22;22044;48.298;10.008;2023-04-07T11:09:38;10.90;99.90
35962;DHT22;22044;48.298;10.008;2023-04-07T11:12:24;11.00;99.90
35962;DHT22;22044;48.298;10.008;2023-04-07T11:15:20;11.10;99.90
35962;DHT22;22044;48.298;10.008;2023-04-07T11:18:15;11.20;99.90
35962;DHT22;22044;48.298;10.008;2023-04-07T11:21:01;11.10;99.90
35962;DHT22;22044;48.298;10.008;2023-04-07T11:23:48;11.00;99.90
35962;DHT22;22044;48.298;10.008;2023-04-07T11:26:39;11.20;99.90
35962;DHT22;22044;48.298;10.008;2023-04-07T11:29:27;11.20;99.90
35962;DHT22;22044;48.298;10.008;2023-04-07T11:32:14;11.10;99.90
35962;DHT22;22044;48.298;10.008;2023-04-07T11:35:05;10.60;99.90
35962;DHT22;22044;48.298;10.008;2023-04-07T11:37:57;10.80;99.90
35962;DHT22;22044;48.298;10.008;2023-04-07T11:40:43;10.80;99.90
35962;DHT22;22044;48.298;10.008;2023-04-07T11:43:28;10.50;99.90
35962;DHT22;22044;48.298;10.008;2023-04-07T11:46:15;10.60;99.90
35962;DHT22;22044;48.298;10.008;2023-04-07T11:49:13;10.50;99.90
35962;DHT22;22044;48.298;10.008;2023-04-07T11:52:00;10.30;99.90
35962;DHT22;22044;48.298;10.008;2023-04-07T11:54:47;10.40;99.90
35962;DHT22;22044;48.298;10.008;2023-04-07T11:57:33;10.40;99.90
35962;DHT22;22044;48.298;10.008;2023-04-07T12:00:20;10.40;99.90
35962;DHT22;22044;48.298;10.008;2023-04-07T12:03:09;10.60;99.90
35962;DHT22;22044;48.298;10.008;2023-04-07T12:05:59;10.40;99.90
35962;DHT22;22044;48.298;10.008;2023-04-07T12:08:44;10.50;99.90
35962;DHT22;22044;48.298;10.008;2023-04-07T12:11:32;10.30;99.90
35962;DHT22;22044;48.298;10.008;2023-04-07T12:14:19;10.50;99.90
35962;DHT22;22044;48.298;10.008;2023-04-07T12:17:04;10.80;99.90
35962;DHT22;22044;48.298;10.008;2023-04-07T12:19:52;11.00;99.90
35962;DHT22;22044;48.298;10.008;2023-04-07T12:22:40;11.10;99.90
35962;DHT22;22044;48.298;10.008;2023-04-07T12:25:26;11.10;99.90
35962;DHT22;22044;48.298;10.008;2023-04-07T12:28:11;11.20;99.90
35962;DHT22;22044;48.298;10.008;2023-04-07T12:30:57;10.90;99.90
35962;DHT22;22044;48.298;10.008;2023-04-07T12:33:42;10.90;99.90
35962;DHT22;22044;48.298;10.008;2023-04-07T12:36:28;11.00;99.90
35962;DHT22;22044;48.298;10.008;2023-04-07T12:39:15;11.10;99.90
35962;DHT22;22044;48.298;10.008;2023-04-07T12:42:01;11.10;99.90
35962;DHT22;22044;48.298;10.008;2023-04-07T12:44:46;11.20;99.90
35962;DHT22;22044;48.298;10.008;2023-04-07T12:47:32;11.10;99.90
35962;DHT22;22044;48.298;10.008;2023-04-07T12:50:17;11.20;99.90
35962;DHT22;22044;48.298;10.008;2023-04-07T12:53:03;11.00;99.90
35962;DHT22;22044;48.298;10.008;2023-04-07T12:55:50;10.60;99.90
35962;DHT22;22044;48.298;10.008;2023-04-07T12:58:35;10.30;99.90
35962;DHT22;22044;48.298;10.008;2023-04-07T13:01:21;10.00;99.90
35962;DHT22;22044;48.298;10.008;2023-04-07T13:04:07;9.90;99.90
35962;DHT22;22044;48.298;10.008;2023-04-07T13:06:52;9.40;99.90
35962;DHT22;22044;48.298;10.008;2023-04-07T13:09:38;9.20;99.90
35962;DHT22;22044;48.298;10.008;2023-04-07T13:12:28;9.10;99.90
35962;DHT22;22044;48.298;10.008;2023-04-07T13:15:13;8.70;99.90
35962;DHT22;22044;48.298;10.008;2023-04-07T13:17:59;8.30;99.90
35962;DHT22;22044;48.298;10.008;2023-04-07T13:20:45;8.20;99.90
35962;DHT22;22044;48.298;10.008;2023-04-07T13:23:30;8.10;99.90
35962;DHT22;22044;48.298;10.008;2023-04-07T13:26:16;8.00;99.90
35962;DHT22;22044;48.298;10.008;2023-04-07T13:29:03;8.00;99.90
35962;DHT22;22044;48.298;10.008;2023-04-07T13:31:50;8.10;99.90
35962;DHT22;22044;48.298;10.008;2023-04-07T13:34:36;8.20;99.90
35962;DHT22;22044;48.298;10.008;2023-04-07T13:37:21;8.10;99.90
35962;DHT22;22044;48.298;10.008;2023-04-07T13:40:08;8.10;99.90
35962;DHT22;22044;48.298;10.008;2023-04-07T13:42:53;8.10;99.90
35962;DHT22;22044;48.298;10.008;2023-04-07T13:45:41;8.10;99.90
35962;DHT22;22044;48.298;10.008;2023-04-07T13:48:26;8.10;99.90
35962;DHT22;22044;48.298;10.008;2023-04-07T13:51:12;8.10;99.90
35962;DHT22;22044;48.298;10.008;2023-04-07T13:53:58;8.10;99.90
35962;DHT22;22044;48.298;10.008;2023-04-07T13:56:43;8.00;99.90
35962;DHT22;22044;48.298;10.008;2023-04-07T13:59:30;8.10;99.90
35962;DHT22;22044;48.298;10.008;2023-04-07T14:02:17;8.10;99.90
35962;DHT22;22044;48.298;10.008;2023-04-07T14:05:04;8.20;99.90
35962;DHT22;22044;48.298;10.008;2023-04-07T14:07:49;8.20;99.90
35962;DHT22;22044;48.298;10.008;2023-04-07T14:10:36;8.20;99.90
35962;DHT22;22044;48.298;10.008;2023-04-07T14:13:21;8.20;99.90
35962;DHT22;22044;48.298;10.008;2023-04-07T14:16:07;8.10;99.90
35962;DHT22;22044;48.298;10.008;2023-04-07T14:18:54;7.90;99.90
35962;DHT22;22044;48.298;10.008;2023-04-07T14:21:40;8.00;99.90
35962;DHT22;22044;48.298;10.008;2023-04-07T14:24:25;8.10;99.90
35962;DHT22;22044;48.298;10.008;2023-04-07T14:27:11;8.10;99.90
35962;DHT22;22044;48.298;10.008;2023-04-07T14:29:57;8.10;99.90
35962;DHT22;22044;48.298;10.008;2023-04-07T14:32:43;8.20;99.90
35962;DHT22;22044;48.298;10.008;2023-04-07T14:35:31;8.20;99.90
35962;DHT22;22044;48.298;10.008;2023-04-07T14:38:16;8.30;99.90
35962;DHT22;22044;48.298;10.008;2023-04-07T14:41:02;8.40;99.90
35962;DHT22;22044;48.298;10.008;2023-04-07T14:43:48;8.40;99.90
35962;DHT22;22044;48.298;10.008;2023-04-07T14:46:39;8.50;99.90
35962;DHT22;22044;48.298;10.008;2023-04-07T14:49:25;8.60;99.90
35962;DHT22;22044;48.298;10.008;2023-04-07T14:52:13;8.50;99.90
35962;DHT22;22044;48.298;10.008;2023-04-07T14:54:58;8.30;99.90
35962;DHT22;22044;48.298;10.008;2023-04-07T14:57:45;8.10;99.90
35962;DHT22;22044;48.298;10.008;2023-04-07T15:00:30;8.00;99.90
35962;DHT22;22044;48.298;10.008;2023-04-07T15:03:16;8.00;99.90
35962;DHT22;22044;48.298;10.008;2023-04-07T15:06:05;8.10;99.90
35962;DHT22;22044;48.298;10.008;2023-04-07T15:08:53;8.10;99.90
35962;DHT22;22044;48.298;10.008;2023-04-07T15:11:38;8.10;99.90
35962;DHT22;22044;48.298;10.008;2023-04-07T15:14:24;8.00;99.90
35962;DHT22;22044;48.298;10.008;2023-04-07T15:17:09;8.00;99.90
35962;DHT22;22044;48.298;10.008;2023-04-07T15:19:55;8.10;99.90
35962;DHT22;22044;48.298;10.008;2023-04-07T15:22:40;8.10;99.90
35962;DHT22;22044;48.298;10.008;2023-04-07T15:25:27;8.20;99.90
35962;DHT22;22044;48.298;10.008;2023-04-07T15:28:13;8.30;99.90
35962;DHT22;22044;48.298;10.008;2023-04-07T15:30:59;8.40;99.90
35962;DHT22;22044;48.298;10.008;2023-04-07T15:33:44;8.50;99.90
35962;DHT22;22044;48.298;10.008;2023-04-07T15:36:31;8.60;99.90
35962;DHT22;22044;48.298;10.008;2023-04-07T15:39:17;8.70;99.90
35962;DHT22;22044;48.298;10.008;2023-04-07T15:42:04;8.80;99.90
35962;DHT22;22044;48.298;10.008;2023-04-07T15:44:53;8.90;99.90
35962;DHT22;22044;48.298;10.008;2023-04-07T15:47:38;8.80;99.90
35962;DHT22;22044;48.298;10.008;2023-04-07T15:50:24;8.70;99.90
35962;DHT22;22044;48.298;10.008;2023-04-07T15:53:11;8.70;99.90
35962;DHT22;22044;48.298;10.008;2023-04-07T15:55:56;8.80;99.90
35962;DHT22;22044;48.298;10.008;2023-04-07T15:58:43;8.80;99.90
35962;DHT22;22044;48.298;10.008;2023-04-07T16:01:29;8.90;99.90
35962;DHT22;22044;48.298;10.008;2023-04-07T16:04:15;9.00;99.90
35962;DHT22;22044;48.298;10.008;2023-04-07T16:07:02;9.10;99.90
35962;DHT22;22044;48.298;10.008;2023-04-07T16:09:48;9.20;99.90
35962;DHT22;22044;48.298;10.008;2023-04-07T16:12:34;9.20;99.90
35962;DHT22;22044;48.298;10.008;2023-04-07T16:15:21;9.20;99.90
35962;DHT22;22044;48.298;10.008;2023-04-07T16:18:08;9.20;99.90
35962;DHT22;22044;48.298;10.008;2023-04-07T16:20:54;9.20;99.90
35962;DHT22;22044;48.298;10.008;2023-04-07T16:23:40;9.30;99.90
35962;DHT22;22044;48.298;10.008;2023-04-07T16:26:25;9.40;99.90
35962;DHT22;22044;48.298;10.008;2023-04-07T16:29:11;9.40;99.90
35962;DHT22;22044;48.298;10.008;2023-04-07T16:31:58;9.50;99.90
35962;DHT22;22044;48.298;10.008;2023-04-07T16:34:43;9.50;99.90
35962;DHT22;22044;48.298;10.008;2023-04-07T16:37:29;9.20;99.90
35962;DHT22;22044;48.298;10.008;2023-04-07T16:40:14;9.10;99.90
35962;DHT22;22044;48.298;10.008;2023-04-07T16:43:00;9.20;99.90
35962;DHT22;22044;48.298;10.008;2023-04-07T16:45:49;9.40;99.90
35962;DHT22;22044;48.298;10.008;2023-04-07T16:48:36;9.50;99.90
35962;DHT22;22044;48.298;10.008;2023-04-07T16:51:21;9.50;99.90
35962;DHT22;22044;48.298;10.008;2023-04-07T16:54:07;9.50;99.90
35962;DHT22;22044;48.298;10.008;2023-04-07T16:56:53;9.50;99.90
35962;DHT22;22044;48.298;10.008;2023-04-07T16:59:39;9.50;99.90
35962;DHT22;22044;48.298;10.008;2023-04-07T17:02:25;9.30;99.90
35962;DHT22;22044;48.298;10.008;2023-04-07T17:05:12;9.10;99.90
35962;DHT22;22044;48.298;10.008;2023-04-07T17:07:57;9.00;99.90
35962;DHT22;22044;48.298;10.008;2023-04-07T17:10:42;9.00;99.90
35962;DHT22;22044;48.298;10.008;2023-04-07T17:13:28;8.90;99.90
35962;DHT22;22044;48.298;10.008;2023-04-07T17:16:14;8.90;99.90
35962;DHT22;22044;48.298;10.008;2023-04-07T17:18:59;9.00;99.90
35962;DHT22;22044;48.298;10.008;2023-04-07T17:21:46;9.10;99.90
35962;DHT22;22044;48.298;10.008;2023-04-07T17:24:32;9.10;99.90
35962;DHT22;22044;48.298;10.008;2023-04-07T17:27:18;9.20;99.90
35962;DHT22;22044;48.298;10.008;2023-04-07T17:30:04;9.10;99.90
35962;DHT22;22044;48.298;10.008;2023-04-07T17:32:51;9.10;99.90
35962;DHT22;22044;48.298;10.008;2023-04-07T17:35:36;9.10;99.90
35962;DHT22;22044;48.298;10.008;2023-04-07T17:38:23;9.00;99.90